Time;durP1;ratioP1;P1;durP2;ratioP2;P2;SDS_P1;SDS_P2;PMS_P1;PMS_P2;Temp;Humidity;BMP_temperature;BMP_pressure;BME280_temperature;BME280_humidity;BME280_pressure;Samples;Min_cycle;Max_cycle;Signal;HPM_P1;HPM_P2
2023/04/14 00:09:28;;;;;;;10.60;5.50;;;6.90;98.50;;;;;;20754105;28;20697;-71
2023/04/14 00:19:30;;;;;;;8.50;5.10;;;6.80;98.30;;;;;;20753056;28;20540;-69
2023/04/14 00:29:32;;;;;;;7.90;6.17;;;6.80;98.40;;;;;;20751525;28;20253;-68
2023/04/14 00:39:34;;;;;;;16.03;8.40;;;6.70;98.50;;;;;;20749608;28;20213;-69
2023/04/14 00:49:36;;;;;;;25.87;14.00;;;6.60;98.70;;;;;;20748891;28;20264;-69
2023/04/14 00:59:38;;;;;;;27.20;9.87;;;6.60;98.60;;;;;;20750265;28;20209;-71
2023/04/14 01:09:40;;;;;;;29.17;12.13;;;6.40;98.70;;;;;;20749838;28;20238;-69
2023/04/14 01:19:58;;;;;;;39.47;7.10;;;6.40;98.90;;;;;;20748892;28;20210;-72
2023/04/14 01:30:34;;;;;;;48.00;7.40;;;6.40;98.90;;;;;;20748236;28;20245;-69
2023/04/14 01:40:39;;;;;;;54.50;9.53;;;6.30;99.10;;;;;;20748488;28;20775;-70
2023/04/14 01:50:42;;;;;;;27.80;11.37;;;6.50;99.20;;;;;;20764390;28;20237;-70
2023/04/14 02:00:44;;;;;;;72.67;10.97;;;6.50;99.10;;;;;;20763741;28;20213;-71
2023/04/14 02:10:48;;;;;;;26.93;7.13;;;6.60;99.10;;;;;;20763388;28;20291;-71
2023/04/14 02:20:52;;;;;;;11.30;7.00;;;6.50;99.20;;;;;;20762021;28;20210;-68
2023/04/14 02:30:57;;;;;;;47.10;10.00;;;6.20;98.90;;;;;;20760948;28;20639;-70
2023/04/14 02:41:01;;;;;;;22.07;9.17;;;6.20;99.20;;;;;;20760913;28;20245;-70
2023/04/14 02:51:06;;;;;;;27.30;9.00;;;6.30;99.20;;;;;;20760073;28;20237;-72
2023/04/14 03:01:08;;;;;;;16.73;8.30;;;6.30;99.10;;;;;;20758619;28;20623;-70
2023/04/14 03:11:12;;;;;;;33.07;10.90;;;6.20;99.20;;;;;;20761747;28;20236;-72
2023/04/14 03:21:17;;;;;;;14.23;7.00;;;6.20;99.10;;;;;;20759999;28;20220;-72
2023/04/14 03:31:21;;;;;;;34.63;8.43;;;6.00;98.90;;;;;;20756554;28;20608;-71
2023/04/14 03:41:25;;;;;;;12.60;6.27;;;5.70;99.00;;;;;;20756265;28;20214;-71
2023/04/14 03:51:31;;;;;;;14.67;6.00;;;5.70;99.00;;;;;;20755127;28;20260;-72
2023/04/14 04:01:33;;;;;;;7.73;5.13;;;5.60;99.20;;;;;;20754459;28;20211;-72
2023/04/14 04:11:36;;;;;;;6.93;4.23;;;5.80;99.20;;;;;;20753106;28;20232;-72
2023/04/14 04:21:41;;;;;;;11.80;5.33;;;5.60;98.80;;;;;;20753174;28;20620;-71
2023/04/14 04:31:42;;;;;;;5.40;4.20;;;5.30;98.70;;;;;;20752109;28;20253;-72
2023/04/14 04:41:45;;;;;;;13.67;4.73;;;5.10;98.70;;;;;;20751931;28;20297;-72
2023/04/14 04:51:47;;;;;;;13.70;6.07;;;4.90;98.90;;;;;;20750769;28;20236;-71
2023/04/14 05:01:49;;;;;;;10.60;5.10;;;4.70;99.10;;;;;;20750049;28;20213;-72
2023/04/14 05:11:51;;;;;;;7.53;4.33;;;4.90;99.30;;;;;;20749299;28;20714;-71
2023/04/14 05:21:54;;;;;;;4.33;2.87;;;4.90;99.20;;;;;;20748708;28;20213;-72
2023/04/14 05:31:56;;;;;;;3.07;2.50;;;4.70;98.70;;;;;;20748273;28;20284;-71
2023/04/14 05:41:58;;;;;;;4.93;3.40;;;4.70;99.00;;;;;;20747941;28;20205;-72
2023/04/14 05:52:00;;;;;;;9.90;3.50;;;5.00;98.90;;;;;;20747813;28;20295;-72
2023/04/14 06:02:05;;;;;;;5.63;3.40;;;5.20;98.70;;;;;;20747005;28;20209;-72
2023/04/14 06:12:08;;;;;;;5.33;3.13;;;;;;;;;;20745421;28;20239;-71
2023/04/14 06:22:10;;;;;;;7.73;4.30;;;5.50;98.40;;;;;;20746595;28;20265;-69
2023/04/14 06:32:12;;;;;;;8.67;3.53;;;5.60;98.60;;;;;;20752382;28;20253;-69
2023/04/14 06:42:14;;;;;;;4.77;3.50;;;6.00;98.40;;;;;;20760316;28;20209;-70
2023/04/14 06:52:16;;;;;;;11.00;3.57;;;6.30;98.40;;;;;;20760058;28;20241;-70
2023/04/14 07:02:17;;;;;;;14.07;3.23;;;6.60;98.50;;;;;;20759456;28;20257;-70
2023/04/14 07:12:19;;;;;;;8.60;3.53;;;6.60;98.80;;;;;;20758316;28;20598;-70
2023/04/14 07:22:21;;;;;;;5.47;3.73;;;7.50;98.20;;;;;;20757265;28;20262;-69
2023/04/14 07:32:22;;;;;;;8.33;4.00;;;7.90;98.10;;;;;;20755374;28;20252;-71
2023/04/14 07:42:25;;;;;;;9.73;3.60;;;8.20;97.80;;;;;;20750963;28;20220;-71
2023/04/14 07:52:27;;;;;;;8.10;4.00;;;8.30;97.60;;;;;;20752706;28;20239;-72
2023/04/14 08:02:30;;;;;;;7.73;3.97;;;8.70;97.80;;;;;;20753911;28;20213;-72
2023/04/14 08:12:32;;;;;;;8.67;4.20;;;9.20;97.40;;;;;;20753024;28;20256;-72
2023/04/14 08:22:34;;;;;;;5.50;3.70;;;9.70;97.10;;;;;;20752687;28;20216;-72
2023/04/14 08:32:35;;;;;;;7.60;3.70;;;10.60;96.50;;;;;;20751301;28;20253;-72
2023/04/14 08:42:37;;;;;;;7.77;3.70;;;11.00;95.30;;;;;;20750804;28;20609;-70
2023/04/14 08:52:40;;;;;;;6.60;2.90;;;11.20;94.60;;;;;;20748885;28;20302;-71
2023/04/14 09:02:43;;;;;;;8.47;3.50;;;11.70;94.10;;;;;;20749161;28;20205;-71
2023/04/14 09:12:46;;;;;;;5.60;3.43;;;11.80;92.70;;;;;;20748907;28;20233;-71
2023/04/14 09:22:47;;;;;;;6.87;3.60;;;11.80;92.30;;;;;;20776645;28;20212;-69
2023/04/14 09:32:54;;;;;;;6.77;4.10;;;11.70;90.90;;;;;;20774833;28;20241;-71
2023/04/14 09:42:57;;;;;;;9.40;4.93;;;11.80;90.40;;;;;;20810315;28;20210;-72
2023/04/14 09:53:03;;;;;;;6.77;5.33;;;12.00;89.50;;;;;;20746023;28;20264;-71
2023/04/14 10:03:04;;;;;;;7.60;5.20;;;12.20;85.80;;;;;;20747355;28;20221;-70
2023/04/14 10:13:07;;;;;;;8.00;4.93;;;12.20;86.30;;;;;;20762477;28;20245;-71
2023/04/14 10:23:10;;;;;;;8.53;5.77;;;12.80;82.50;;;;;;20762088;28;20248;-69
2023/04/14 10:33:13;;;;;;;6.63;5.00;;;12.80;83.00;;;;;;20777053;28;20244;-68
2023/04/14 10:43:15;;;;;;;5.77;4.00;;;14.00;76.20;;;;;;20806218;28;20279;-63
2023/04/14 10:53:17;;;;;;;7.23;4.30;;;14.10;74.50;;;;;;20786789;28;20350;-67
2023/04/14 11:03:19;;;;;;;11.63;3.83;;;14.00;74.30;;;;;;20757256;28;20213;-72
2023/04/14 11:13:21;;;;;;;3.63;2.70;;;13.80;73.30;;;;;;20835726;28;20259;-70
2023/04/14 11:23:27;;;;;;;5.53;2.43;;;13.70;75.20;;;;;;20838317;28;20209;-69
2023/04/14 11:33:34;;;;;;;3.93;2.00;;;13.60;67.90;;;;;;20837035;28;20252;-69
2023/04/14 11:43:37;;;;;;;2.97;1.80;;;13.50;67.30;;;;;;20789153;28;20214;-69
2023/04/14 11:53:39;;;;;;;5.60;2.00;;;13.90;65.30;;;;;;20776011;28;20299;-68
2023/04/14 12:03:41;;;;;;;1.40;1.30;;;14.60;64.00;;;;;;20801157;28;20649;-68
2023/04/14 12:13:45;;;;;;;3.20;1.60;;;15.00;61.50;;;;;;20769057;28;20286;-69
2023/04/14 12:23:47;;;;;;;2.13;1.50;;;15.00;62.10;;;;;;20757877;28;20198;-68
2023/04/14 12:33:50;;;;;;;1.77;1.43;;;15.60;58.30;;;;;;20830179;28;20357;-68
2023/04/14 12:43:51;;;;;;;2.67;2.00;;;16.20;57.50;;;;;;20831994;28;20667;-68
2023/04/14 12:54:06;;;;;;;2.40;2.20;;;16.20;58.00;;;;;;20831008;28;20229;-67
2023/04/14 13:04:08;;;;;;;2.73;2.20;;;15.90;57.70;;;;;;20773739;28;20676;-69
2023/04/14 13:14:10;;;;;;;1.97;1.87;;;16.10;55.30;;;;;;20747289;28;20720;-69
2023/04/14 13:24:11;;;;;;;5.87;3.30;;;16.00;55.70;;;;;;20747329;28;20206;-67
2023/04/14 13:34:13;;;;;;;5.93;2.27;;;16.00;55.60;;;;;;20747056;28;20244;-67
2023/04/14 13:44:15;;;;;;;2.00;1.50;;;15.80;55.70;;;;;;20747119;28;20255;-68
2023/04/14 13:54:17;;;;;;;4.20;1.60;;;15.90;56.50;;;;;;20747458;28;20234;-67
2023/04/14 14:04:19;;;;;;;2.30;1.40;;;;;;;;;;20805165;28;20252;-67
2023/04/14 14:14:22;;;;;;;2.35;1.58;;;;;;;;;;20828137;28;20278;-70
2023/04/14 14:24:24;;;;;;;1.50;1.20;;;;;;;;;;20827236;28;20247;-67
2023/04/14 14:34:26;;;;;;;1.20;1.10;;;;;;;;;;20827456;28;20265;-69
2023/04/14 14:44:28;;;;;;;1.10;1.00;;;;;;;;;;20828307;28;20211;-69
2023/04/14 14:54:30;;;;;;;1.00;0.90;;;;;;;;;;20836793;28;20242;-71
2023/04/14 15:04:32;;;;;;;1.58;0.80;;;;;;;;;;20779052;28;20266;-71
2023/04/14 15:14:34;;;;;;;1.65;1.10;;;28.20;30.70;;;;;;20758441;28;20248;-71
2023/04/14 15:24:36;;;;;;;1.85;1.23;;;27.30;32.60;;;;;;20757714;28;20301;-70
2023/04/14 15:34:38;;;;;;;2.30;1.23;;;26.70;32.80;;;;;;20756700;28;20247;-70
2023/04/14 15:44:39;;;;;;;2.47;1.90;;;21.50;35.90;;;;;;20756070;28;20223;-69
2023/04/14 15:54:41;;;;;;;2.10;1.80;;;21.90;36.30;;;;;;20755379;28;20306;-70
2023/04/14 16:04:43;;;;;;;1.87;1.20;;;20.50;37.50;;;;;;20816250;28;20661;-70
2023/04/14 16:14:45;;;;;;;2.20;1.40;;;19.00;39.60;;;;;;20835478;28;20271;-70
2023/04/14 16:24:46;;;;;;;2.50;1.20;;;19.00;40.20;;;;;;20834587;28;20580;-68
2023/04/14 16:34:48;;;;;;;1.97;1.60;;;18.40;41.00;;;;;;20833844;28;20611;-69
2023/04/14 16:44:51;;;;;;;4.27;2.80;;;16.70;43.60;;;;;;20832601;28;20217;-69
2023/04/14 16:54:53;;;;;;;5.07;2.97;;;16.70;44.40;;;;;;20832243;28;20710;-70
2023/04/14 17:04:57;;;;;;;6.10;1.80;;;16.30;45.50;;;;;;20768473;28;20207;-71
2023/04/14 17:14:59;;;;;;;1.90;1.40;;;15.80;46.30;;;;;;20748837;28;20237;-72
2023/04/14 17:25:03;;;;;;;5.00;1.97;;;15.50;47.90;;;;;;20749791;28;20246;-73
2023/04/14 17:35:05;;;;;;;2.13;1.90;;;14.80;48.60;;;;;;20748855;28;20240;-68
2023/04/14 17:45:07;;;;;;;7.00;2.47;;;14.80;49.20;;;;;;20747353;28;20226;-70
2023/04/14 17:55:09;;;;;;;3.23;2.27;;;14.30;50.40;;;;;;20746560;28;20241;-67
2023/04/14 18:05:12;;;;;;;2.80;1.50;;;14.30;51.00;;;;;;20760987;28;20300;-68
2023/04/14 18:15:16;;;;;;;3.23;2.10;;;13.90;51.80;;;;;;20743846;28;20735;-68
2023/04/14 18:25:18;;;;;;;4.23;2.47;;;13.70;52.90;;;;;;20745165;28;20279;-69
2023/04/14 18:35:21;;;;;;;2.73;2.30;;;13.60;53.50;;;;;;20759265;28;20775;-71
2023/04/14 18:45:22;;;;;;;8.13;4.37;;;13.50;54.80;;;;;;20758644;28;20219;-72
2023/04/14 18:55:24;;;;;;;3.30;2.10;;;13.30;56.20;;;;;;20757707;28;20249;-70
2023/04/14 19:05:26;;;;;;;4.10;2.17;;;13.10;57.10;;;;;;20755963;28;20217;-69
2023/04/14 19:15:28;;;;;;;3.70;1.90;;;13.00;57.60;;;;;;20754420;28;20251;-72
2023/04/14 19:25:30;;;;;;;3.83;2.20;;;12.90;58.10;;;;;;20753649;28;20258;-70
2023/04/14 19:35:31;;;;;;;3.10;2.10;;;12.70;58.80;;;;;;20753343;28;20252;-71
2023/04/14 19:45:33;;;;;;;2.73;2.13;;;12.40;59.80;;;;;;20751795;28;20213;-71
2023/04/14 19:55:35;;;;;;;7.07;2.40;;;12.40;60.40;;;;;;20751299;28;20244;-73
2023/04/14 20:05:37;;;;;;;3.53;2.00;;;12.30;61.30;;;;;;20751473;28;20224;-72
2023/04/14 20:15:39;;;;;;;5.10;3.63;;;11.90;62.60;;;;;;20750682;28;20709;-73
2023/04/14 20:25:42;;;;;;;3.97;3.20;;;11.80;62.90;;;;;;20749768;28;20586;-72
2023/04/14 20:35:44;;;;;;;7.83;4.20;;;11.60;65.50;;;;;;20748076;28;20240;-70
2023/04/14 20:45:48;;;;;;;3.20;2.80;;;11.60;66.30;;;;;;20748210;28;20675;-71
2023/04/14 20:55:50;;;;;;;6.37;4.20;;;11.30;67.50;;;;;;20746279;28;20238;-69
2023/04/14 21:05:52;;;;;;;6.03;4.30;;;11.40;68.40;;;;;;20747524;28;20589;-71
2023/04/14 21:15:54;;;;;;;8.57;5.63;;;10.80;70.70;;;;;;20745546;28;20243;-72
2023/04/14 21:25:58;;;;;;;8.70;5.63;;;10.40;73.60;;;;;;20746127;28;20233;-71
2023/04/14 21:36:01;;;;;;;7.30;5.33;;;10.40;74.50;;;;;;20744990;28;20244;-70
2023/04/14 21:46:03;;;;;;;10.57;4.90;;;9.90;79.00;;;;;;20744691;28;20312;-70
2023/04/14 21:56:06;;;;;;;9.80;4.73;;;9.60;81.60;;;;;;20746060;28;20239;-70
2023/04/14 22:06:12;;;;;;;6.13;4.23;;;9.60;82.20;;;;;;20759289;28;20238;-72
2023/04/14 22:16:15;;;;;;;7.77;5.00;;;9.60;83.70;;;;;;20763307;28;20231;-69
2023/04/14 22:26:17;;;;;;;8.60;5.17;;;9.40;85.20;;;;;;20762492;28;20312;-69
2023/04/14 22:36:18;;;;;;;12.73;6.50;;;9.20;86.50;;;;;;20762815;28;20241;-70
2023/04/14 22:46:20;;;;;;;10.40;5.60;;;9.20;87.40;;;;;;20762182;28;20224;-69
2023/04/14 22:56:22;;;;;;;11.10;5.27;;;9.10;87.60;;;;;;20759835;28;20249;-72
2023/04/14 23:06:24;;;;;;;10.57;6.07;;;9.10;88.50;;;;;;20759794;28;20210;-72
2023/04/14 23:16:26;;;;;;;11.37;5.20;;;8.90;89.50;;;;;;20757648;28;20241;-71
2023/04/14 23:26:28;;;;;;;7.40;4.87;;;8.80;90.20;;;;;;20757394;28;20242;-72
2023/04/14 23:36:30;;;;;;;7.70;5.00;;;8.90;90.50;;;;;;20757518;28;20297;-73
2023/04/14 23:46:32;;;;;;;11.20;6.23;;;8.80;90.70;;;;;;20756351;28;20214;-72
2023/04/14 23:56:35;;;;;;;8.93;5.90;;;8.70;90.90;;;;;;20755359;28;20308;-72
